sensor_id;sensor_type;location;lat;lon;timestamp;temperature;humidity
23271;DHT22;11804;51.118;17.058;2022-10-16T00:01:22;13.20;99.90
23271;DHT22;11804;51.118;17.058;2022-10-16T00:03:51;13.20;99.90
23271;DHT22;11804;51.118;17.058;2022-10-16T00:06:21;13.20;99.90
23271;DHT22;11804;51.118;17.058;2022-10-16T00:08:49;13.20;99.90
23271;DHT22;11804;51.118;17.058;2022-10-16T00:11:21;13.20;99.90
23271;DHT22;11804;51.118;17.058;2022-10-16T00:13:50;13.20;99.90
23271;DHT22;11804;51.118;17.058;2022-10-16T00:16:19;13.20;99.90
23271;DHT22;11804;51.118;17.058;2022-10-16T00:18:47;13.20;99.90
23271;DHT22;11804;51.118;17.058;2022-10-16T00:21:21;13.20;99.90
23271;DHT22;11804;51.118;17.058;2022-10-16T00:23:53;13.20;99.90
23271;DHT22;11804;51.118;17.058;2022-10-16T00:26:21;13.20;99.90
23271;DHT22;11804;51.118;17.058;2022-10-16T00:28:49;13.20;99.90
23271;DHT22;11804;51.118;17.058;2022-10-16T00:31:19;13.20;99.90
23271;DHT22;11804;51.118;17.058;2022-10-16T00:33:47;13.10;99.90
23271;DHT22;11804;51.118;17.058;2022-10-16T00:36:18;13.10;99.90
23271;DHT22;11804;51.118;17.058;2022-10-16T00:38:46;13.10;99.90
23271;DHT22;11804;51.118;17.058;2022-10-16T00:41:16;13.10;99.90
23271;DHT22;11804;51.118;17.058;2022-10-16T00:43:50;13.10;99.90
23271;DHT22;11804;51.118;17.058;2022-10-16T00:46:26;13.10;99.90
23271;DHT22;11804;51.118;17.058;2022-10-16T00:49:02;13.10;99.90
23271;DHT22;11804;51.118;17.058;2022-10-16T00:51:37;13.10;99.90
23271;DHT22;11804;51.118;17.058;2022-10-16T00:54:10;13.10;99.90
23271;DHT22;11804;51.118;17.058;2022-10-16T00:56:34;13.10;99.90
23271;DHT22;11804;51.118;17.058;2022-10-16T00:59:04;13.10;99.90
23271;DHT22;11804;51.118;17.058;2022-10-16T01:01:32;13.10;99.90
23271;DHT22;11804;51.118;17.058;2022-10-16T01:04:00;13.10;99.90
23271;DHT22;11804;51.118;17.058;2022-10-16T01:09:34;13.10;99.90
23271;DHT22;11804;51.118;17.058;2022-10-16T01:12:20;13.10;99.90
23271;DHT22;11804;51.118;17.058;2022-10-16T01:14:53;13.10;99.90
23271;DHT22;11804;51.118;17.058;2022-10-16T01:17:28;13.20;99.90
23271;DHT22;11804;51.118;17.058;2022-10-16T01:22:48;13.20;99.90
23271;DHT22;11804;51.118;17.058;2022-10-16T01:25:18;13.10;99.90
23271;DHT22;11804;51.118;17.058;2022-10-16T01:27:46;13.20;99.90
23271;DHT22;11804;51.118;17.058;2022-10-16T01:30:17;13.10;99.90
23271;DHT22;11804;51.118;17.058;2022-10-16T01:32:52;13.10;99.90
23271;DHT22;11804;51.118;17.058;2022-10-16T01:37:53;13.10;99.90
23271;DHT22;11804;51.118;17.058;2022-10-16T01:40:23;13.10;99.90
23271;DHT22;11804;51.118;17.058;2022-10-16T01:42:56;13.10;99.90
23271;DHT22;11804;51.118;17.058;2022-10-16T01:45:25;13.00;99.90
23271;DHT22;11804;51.118;17.058;2022-10-16T01:47:53;13.10;99.90
23271;DHT22;11804;51.118;17.058;2022-10-16T01:50:22;13.10;99.90
23271;DHT22;11804;51.118;17.058;2022-10-16T01:52:52;13.10;99.90
23271;DHT22;11804;51.118;17.058;2022-10-16T01:55:22;13.10;99.90
23271;DHT22;11804;51.118;17.058;2022-10-16T01:57:52;13.10;99.90
23271;DHT22;11804;51.118;17.058;2022-10-16T02:00:21;13.10;99.90
23271;DHT22;11804;51.118;17.058;2022-10-16T02:02:52;13.10;99.90
23271;DHT22;11804;51.118;17.058;2022-10-16T02:05:42;13.10;99.90
23271;DHT22;11804;51.118;17.058;2022-10-16T02:08:10;13.20;99.90
23271;DHT22;11804;51.118;17.058;2022-10-16T02:10:38;13.20;99.90
23271;DHT22;11804;51.118;17.058;2022-10-16T02:13:13;13.20;99.90
23271;DHT22;11804;51.118;17.058;2022-10-16T02:15:37;13.10;99.90
23271;DHT22;11804;51.118;17.058;2022-10-16T02:18:05;13.10;99.90
23271;DHT22;11804;51.118;17.058;2022-10-16T02:23:24;13.00;99.90
23271;DHT22;11804;51.118;17.058;2022-10-16T02:25:52;12.90;99.90
23271;DHT22;11804;51.118;17.058;2022-10-16T02:28:44;13.00;99.90
23271;DHT22;11804;51.118;17.058;2022-10-16T02:31:08;13.00;99.90
23271;DHT22;11804;51.118;17.058;2022-10-16T02:33:40;12.90;99.90
23271;DHT22;11804;51.118;17.058;2022-10-16T02:36:08;13.00;99.90
23271;DHT22;11804;51.118;17.058;2022-10-16T02:38:37;13.00;99.90
23271;DHT22;11804;51.118;17.058;2022-10-16T02:41:07;13.00;99.90
23271;DHT22;11804;51.118;17.058;2022-10-16T02:43:35;13.00;99.90
23271;DHT22;11804;51.118;17.058;2022-10-16T02:46:02;12.90;99.90
23271;DHT22;11804;51.118;17.058;2022-10-16T02:48:30;12.80;99.90
23271;DHT22;11804;51.118;17.058;2022-10-16T02:50:58;12.70;99.90
23271;DHT22;11804;51.118;17.058;2022-10-16T02:53:25;12.70;99.90
23271;DHT22;11804;51.118;17.058;2022-10-16T02:55:53;12.60;99.90
23271;DHT22;11804;51.118;17.058;2022-10-16T02:58:20;12.60;99.90
23271;DHT22;11804;51.118;17.058;2022-10-16T03:00:48;12.60;99.90
23271;DHT22;11804;51.118;17.058;2022-10-16T03:03:15;12.70;99.90
23271;DHT22;11804;51.118;17.058;2022-10-16T03:05:44;12.70;99.90
23271;DHT22;11804;51.118;17.058;2022-10-16T03:08:15;12.70;99.90
23271;DHT22;11804;51.118;17.058;2022-10-16T03:10:42;12.70;99.90
23271;DHT22;11804;51.118;17.058;2022-10-16T03:13:10;12.80;99.90
23271;DHT22;11804;51.118;17.058;2022-10-16T03:15:37;12.80;99.90
23271;DHT22;11804;51.118;17.058;2022-10-16T03:18:05;12.90;99.90
23271;DHT22;11804;51.118;17.058;2022-10-16T03:20:32;12.90;99.90
23271;DHT22;11804;51.118;17.058;2022-10-16T03:23:00;12.90;99.90
23271;DHT22;11804;51.118;17.058;2022-10-16T03:25:29;13.00;99.90
23271;DHT22;11804;51.118;17.058;2022-10-16T03:27:57;13.00;99.90
23271;DHT22;11804;51.118;17.058;2022-10-16T03:30:24;13.00;99.90
23271;DHT22;11804;51.118;17.058;2022-10-16T03:32:52;13.10;99.90
23271;DHT22;11804;51.118;17.058;2022-10-16T03:35:21;13.00;99.90
23271;DHT22;11804;51.118;17.058;2022-10-16T03:37:51;13.00;99.90
23271;DHT22;11804;51.118;17.058;2022-10-16T03:40:18;13.10;99.90
23271;DHT22;11804;51.118;17.058;2022-10-16T03:42:45;13.10;99.90
23271;DHT22;11804;51.118;17.058;2022-10-16T03:45:13;13.10;99.90
23271;DHT22;11804;51.118;17.058;2022-10-16T03:47:41;13.20;99.90
23271;DHT22;11804;51.118;17.058;2022-10-16T03:50:09;13.20;99.90
23271;DHT22;11804;51.118;17.058;2022-10-16T03:52:36;13.20;99.90
23271;DHT22;11804;51.118;17.058;2022-10-16T03:55:04;13.20;99.90
23271;DHT22;11804;51.118;17.058;2022-10-16T03:57:32;13.20;99.90
23271;DHT22;11804;51.118;17.058;2022-10-16T03:59:59;13.20;99.90
23271;DHT22;11804;51.118;17.058;2022-10-16T04:02:27;13.30;99.90
23271;DHT22;11804;51.118;17.058;2022-10-16T04:04:54;13.30;99.90
23271;DHT22;11804;51.118;17.058;2022-10-16T04:07:22;13.30;99.90
23271;DHT22;11804;51.118;17.058;2022-10-16T04:09:49;13.30;99.90
23271;DHT22;11804;51.118;17.058;2022-10-16T04:12:18;13.30;99.90
23271;DHT22;11804;51.118;17.058;2022-10-16T04:14:46;13.30;99.90
23271;DHT22;11804;51.118;17.058;2022-10-16T04:17:13;13.30;99.90
23271;DHT22;11804;51.118;17.058;2022-10-16T04:19:41;13.40;99.90
23271;DHT22;11804;51.118;17.058;2022-10-16T04:22:08;13.30;99.90
23271;DHT22;11804;51.118;17.058;2022-10-16T04:24:36;13.30;99.90
23271;DHT22;11804;51.118;17.058;2022-10-16T04:27:05;13.30;99.90
23271;DHT22;11804;51.118;17.058;2022-10-16T04:29:32;13.30;99.90
23271;DHT22;11804;51.118;17.058;2022-10-16T04:32:00;13.30;99.90
23271;DHT22;11804;51.118;17.058;2022-10-16T04:34:27;13.20;99.90
23271;DHT22;11804;51.118;17.058;2022-10-16T04:36:55;13.20;99.90
23271;DHT22;11804;51.118;17.058;2022-10-16T04:39:22;13.20;99.90
23271;DHT22;11804;51.118;17.058;2022-10-16T04:41:50;13.20;99.90
23271;DHT22;11804;51.118;17.058;2022-10-16T04:44:17;13.10;99.90
23271;DHT22;11804;51.118;17.058;2022-10-16T04:46:45;13.10;99.90
23271;DHT22;11804;51.118;17.058;2022-10-16T04:49:12;13.10;99.90
23271;DHT22;11804;51.118;17.058;2022-10-16T04:51:40;13.10;99.90
23271;DHT22;11804;51.118;17.058;2022-10-16T04:54:09;13.10;99.90
23271;DHT22;11804;51.118;17.058;2022-10-16T04:56:37;13.10;99.90
23271;DHT22;11804;51.118;17.058;2022-10-16T04:59:06;13.10;99.90
23271;DHT22;11804;51.118;17.058;2022-10-16T05:01:33;13.10;99.90
23271;DHT22;11804;51.118;17.058;2022-10-16T05:04:01;13.10;99.90
23271;DHT22;11804;51.118;17.058;2022-10-16T05:06:28;13.10;99.90
23271;DHT22;11804;51.118;17.058;2022-10-16T05:08:56;13.10;99.90
23271;DHT22;11804;51.118;17.058;2022-10-16T05:11:23;13.10;99.90
23271;DHT22;11804;51.118;17.058;2022-10-16T05:13:51;13.10;99.90
23271;DHT22;11804;51.118;17.058;2022-10-16T05:16:18;13.00;99.90
23271;DHT22;11804;51.118;17.058;2022-10-16T05:18:46;13.00;99.90
23271;DHT22;11804;51.118;17.058;2022-10-16T05:21:14;13.00;99.90
23271;DHT22;11804;51.118;17.058;2022-10-16T05:23:43;13.00;99.90
23271;DHT22;11804;51.118;17.058;2022-10-16T05:26:11;13.00;99.90
23271;DHT22;11804;51.118;17.058;2022-10-16T05:28:39;13.00;99.90
23271;DHT22;11804;51.118;17.058;2022-10-16T05:31:08;13.00;99.90
23271;DHT22;11804;51.118;17.058;2022-10-16T05:33:36;13.00;99.90
23271;DHT22;11804;51.118;17.058;2022-10-16T05:36:07;13.00;99.90
23271;DHT22;11804;51.118;17.058;2022-10-16T05:38:36;13.00;99.90
23271;DHT22;11804;51.118;17.058;2022-10-16T05:41:05;13.00;99.90
23271;DHT22;11804;51.118;17.058;2022-10-16T05:43:34;13.00;99.90
23271;DHT22;11804;51.118;17.058;2022-10-16T05:46:04;13.10;99.90
23271;DHT22;11804;51.118;17.058;2022-10-16T05:48:32;13.10;99.90
23271;DHT22;11804;51.118;17.058;2022-10-16T05:51:08;13.10;99.90
23271;DHT22;11804;51.118;17.058;2022-10-16T05:53:32;13.20;99.90
23271;DHT22;11804;51.118;17.058;2022-10-16T05:56:01;13.20;99.90
23271;DHT22;11804;51.118;17.058;2022-10-16T05:58:31;13.20;99.90
23271;DHT22;11804;51.118;17.058;2022-10-16T06:01:02;13.30;99.90
23271;DHT22;11804;51.118;17.058;2022-10-16T06:03:30;13.30;99.90
23271;DHT22;11804;51.118;17.058;2022-10-16T06:05:58;13.40;99.90
23271;DHT22;11804;51.118;17.058;2022-10-16T06:08:25;13.40;99.90
23271;DHT22;11804;51.118;17.058;2022-10-16T06:11:09;13.50;99.90
23271;DHT22;11804;51.118;17.058;2022-10-16T06:13:32;13.50;99.90
23271;DHT22;11804;51.118;17.058;2022-10-16T06:16:00;13.60;99.90
23271;DHT22;11804;51.118;17.058;2022-10-16T06:18:29;13.70;99.90
23271;DHT22;11804;51.118;17.058;2022-10-16T06:20:57;13.70;99.90
23271;DHT22;11804;51.118;17.058;2022-10-16T06:23:27;13.80;99.90
23271;DHT22;11804;51.118;17.058;2022-10-16T06:26:03;13.80;99.90
23271;DHT22;11804;51.118;17.058;2022-10-16T06:28:23;13.90;99.90
23271;DHT22;11804;51.118;17.058;2022-10-16T06:30:58;13.90;99.90
23271;DHT22;11804;51.118;17.058;2022-10-16T06:33:22;14.00;99.90
23271;DHT22;11804;51.118;17.058;2022-10-16T06:35:49;14.00;99.90
23271;DHT22;11804;51.118;17.058;2022-10-16T06:38:17;14.10;99.90
23271;DHT22;11804;51.118;17.058;2022-10-16T06:40:44;14.10;99.90
23271;DHT22;11804;51.118;17.058;2022-10-16T06:43:12;14.20;99.90
23271;DHT22;11804;51.118;17.058;2022-10-16T06:45:39;14.30;99.90
23271;DHT22;11804;51.118;17.058;2022-10-16T06:48:07;14.40;99.90
23271;DHT22;11804;51.118;17.058;2022-10-16T06:50:34;14.50;99.90
23271;DHT22;11804;51.118;17.058;2022-10-16T06:53:02;14.50;99.90
23271;DHT22;11804;51.118;17.058;2022-10-16T06:55:29;14.50;99.90
23271;DHT22;11804;51.118;17.058;2022-10-16T06:57:57;14.50;99.90
23271;DHT22;11804;51.118;17.058;2022-10-16T07:00:24;14.50;99.90
23271;DHT22;11804;51.118;17.058;2022-10-16T07:02:54;14.50;99.90
23271;DHT22;11804;51.118;17.058;2022-10-16T07:05:21;14.60;99.90
23271;DHT22;11804;51.118;17.058;2022-10-16T07:07:49;14.60;99.90
23271;DHT22;11804;51.118;17.058;2022-10-16T07:10:16;14.60;99.90
23271;DHT22;11804;51.118;17.058;2022-10-16T07:12:44;14.70;99.90
23271;DHT22;11804;51.118;17.058;2022-10-16T07:15:11;14.70;99.90
23271;DHT22;11804;51.118;17.058;2022-10-16T07:17:39;14.70;99.90
23271;DHT22;11804;51.118;17.058;2022-10-16T07:20:07;14.70;99.90
23271;DHT22;11804;51.118;17.058;2022-10-16T07:22:35;14.70;99.90
23271;DHT22;11804;51.118;17.058;2022-10-16T07:25:03;14.70;99.90
23271;DHT22;11804;51.118;17.058;2022-10-16T07:27:30;14.80;99.90
23271;DHT22;11804;51.118;17.058;2022-10-16T07:29:58;14.90;99.90
23271;DHT22;11804;51.118;17.058;2022-10-16T07:32:25;15.00;99.90
23271;DHT22;11804;51.118;17.058;2022-10-16T07:34:53;15.10;99.90
23271;DHT22;11804;51.118;17.058;2022-10-16T07:37:22;15.20;99.90
23271;DHT22;11804;51.118;17.058;2022-10-16T07:39:50;15.40;99.90
23271;DHT22;11804;51.118;17.058;2022-10-16T07:42:18;15.60;99.90
23271;DHT22;11804;51.118;17.058;2022-10-16T07:44:46;15.80;99.90
23271;DHT22;11804;51.118;17.058;2022-10-16T07:47:14;15.90;99.90
23271;DHT22;11804;51.118;17.058;2022-10-16T07:49:41;15.90;99.90
23271;DHT22;11804;51.118;17.058;2022-10-16T07:52:09;15.90;99.90
23271;DHT22;11804;51.118;17.058;2022-10-16T07:54:36;16.00;99.90
23271;DHT22;11804;51.118;17.058;2022-10-16T07:57:04;16.00;99.90
23271;DHT22;11804;51.118;17.058;2022-10-16T07:59:31;16.10;99.90
23271;DHT22;11804;51.118;17.058;2022-10-16T08:01:59;16.20;99.90
23271;DHT22;11804;51.118;17.058;2022-10-16T08:04:26;16.30;99.90
23271;DHT22;11804;51.118;17.058;2022-10-16T08:06:54;16.30;99.90
23271;DHT22;11804;51.118;17.058;2022-10-16T08:09:21;16.40;99.90
23271;DHT22;11804;51.118;17.058;2022-10-16T08:11:49;16.60;99.90
23271;DHT22;11804;51.118;17.058;2022-10-16T08:14:18;16.70;99.90
23271;DHT22;11804;51.118;17.058;2022-10-16T08:16:45;16.80;99.90
23271;DHT22;11804;51.118;17.058;2022-10-16T08:19:13;16.90;99.90
23271;DHT22;11804;51.118;17.058;2022-10-16T08:21:42;17.10;99.90
23271;DHT22;11804;51.118;17.058;2022-10-16T08:24:09;17.20;99.90
23271;DHT22;11804;51.118;17.058;2022-10-16T08:26:37;17.30;99.90
23271;DHT22;11804;51.118;17.058;2022-10-16T08:29:04;17.30;99.90
23271;DHT22;11804;51.118;17.058;2022-10-16T08:31:32;17.30;99.90
23271;DHT22;11804;51.118;17.058;2022-10-16T08:33:59;17.40;99.90
23271;DHT22;11804;51.118;17.058;2022-10-16T08:36:27;17.40;99.90
23271;DHT22;11804;51.118;17.058;2022-10-16T08:38:55;17.40;99.90
23271;DHT22;11804;51.118;17.058;2022-10-16T08:44:28;17.50;99.90
23271;DHT22;11804;51.118;17.058;2022-10-16T08:47:23;17.50;99.90
23271;DHT22;11804;51.118;17.058;2022-10-16T08:49:59;17.50;99.90
23271;DHT22;11804;51.118;17.058;2022-10-16T08:52:33;17.70;99.90
23271;DHT22;11804;51.118;17.058;2022-10-16T08:55:02;17.80;99.90
23271;DHT22;11804;51.118;17.058;2022-10-16T08:57:31;17.80;99.90
23271;DHT22;11804;51.118;17.058;2022-10-16T09:00:05;17.90;99.90
23271;DHT22;11804;51.118;17.058;2022-10-16T09:02:32;17.80;99.90
23271;DHT22;11804;51.118;17.058;2022-10-16T09:05:17;18.10;99.90
23271;DHT22;11804;51.118;17.058;2022-10-16T09:07:46;18.20;99.90
23271;DHT22;11804;51.118;17.058;2022-10-16T09:10:23;18.30;99.90
23271;DHT22;11804;51.118;17.058;2022-10-16T09:13:08;18.40;99.90
23271;DHT22;11804;51.118;17.058;2022-10-16T09:15:55;18.60;99.90
23271;DHT22;11804;51.118;17.058;2022-10-16T09:18:24;18.50;99.90
23271;DHT22;11804;51.118;17.058;2022-10-16T09:21:05;18.50;99.90
23271;DHT22;11804;51.118;17.058;2022-10-16T09:23:34;18.50;99.90
23271;DHT22;11804;51.118;17.058;2022-10-16T09:26:01;18.70;99.90
23271;DHT22;11804;51.118;17.058;2022-10-16T09:28:29;18.70;99.90
23271;DHT22;11804;51.118;17.058;2022-10-16T09:30:57;18.70;99.90
23271;DHT22;11804;51.118;17.058;2022-10-16T09:33:29;18.80;99.90
23271;DHT22;11804;51.118;17.058;2022-10-16T09:35:58;19.00;99.90
23271;DHT22;11804;51.118;17.058;2022-10-16T09:38:34;19.10;99.90
23271;DHT22;11804;51.118;17.058;2022-10-16T09:41:21;19.20;99.90
23271;DHT22;11804;51.118;17.058;2022-10-16T09:43:53;19.50;99.90
23271;DHT22;11804;51.118;17.058;2022-10-16T09:46:35;20.10;99.90
23271;DHT22;11804;51.118;17.058;2022-10-16T09:49:18;20.20;99.90
23271;DHT22;11804;51.118;17.058;2022-10-16T09:51:36;20.20;99.90
23271;DHT22;11804;51.118;17.058;2022-10-16T09:56:38;20.10;99.90
23271;DHT22;11804;51.118;17.058;2022-10-16T09:59:14;20.60;99.90
23271;DHT22;11804;51.118;17.058;2022-10-16T10:01:50;21.40;99.90
23271;DHT22;11804;51.118;17.058;2022-10-16T10:04:25;22.50;99.90
23271;DHT22;11804;51.118;17.058;2022-10-16T10:06:56;23.10;99.90
23271;DHT22;11804;51.118;17.058;2022-10-16T10:09:37;23.50;99.90
23271;DHT22;11804;51.118;17.058;2022-10-16T10:12:06;24.10;95.60
23271;DHT22;11804;51.118;17.058;2022-10-16T10:14:35;23.90;95.30
23271;DHT22;11804;51.118;17.058;2022-10-16T10:19:40;23.80;95.00
23271;DHT22;11804;51.118;17.058;2022-10-16T10:22:25;23.70;96.80
23271;DHT22;11804;51.118;17.058;2022-10-16T10:25:07;24.00;95.30
23271;DHT22;11804;51.118;17.058;2022-10-16T10:30:24;24.50;89.90
23271;DHT22;11804;51.118;17.058;2022-10-16T10:41:56;24.20;90.10
23271;DHT22;11804;51.118;17.058;2022-10-16T10:47:20;23.50;93.30
23271;DHT22;11804;51.118;17.058;2022-10-16T10:52:38;22.80;97.80
23271;DHT22;11804;51.118;17.058;2022-10-16T10:55:31;22.40;99.90
23271;DHT22;11804;51.118;17.058;2022-10-16T10:58:15;22.10;99.90
23271;DHT22;11804;51.118;17.058;2022-10-16T11:06:30;21.80;99.90
23271;DHT22;11804;51.118;17.058;2022-10-16T11:09:02;21.70;99.90
23271;DHT22;11804;51.118;17.058;2022-10-16T11:11:35;21.60;99.90
23271;DHT22;11804;51.118;17.058;2022-10-16T11:16:56;21.30;99.90
23271;DHT22;11804;51.118;17.058;2022-10-16T11:33:32;21.10;99.90
23271;DHT22;11804;51.118;17.058;2022-10-16T11:41:37;21.20;99.90
23271;DHT22;11804;51.118;17.058;2022-10-16T11:44:33;21.30;99.90
23271;DHT22;11804;51.118;17.058;2022-10-16T11:47:08;21.40;99.90
23271;DHT22;11804;51.118;17.058;2022-10-16T11:49:30;21.30;99.90
23271;DHT22;11804;51.118;17.058;2022-10-16T11:54:44;21.10;99.90
23271;DHT22;11804;51.118;17.058;2022-10-16T11:57:31;21.00;99.90
23271;DHT22;11804;51.118;17.058;2022-10-16T12:00:09;20.90;99.90
23271;DHT22;11804;51.118;17.058;2022-10-16T12:08:14;20.90;99.90
23271;DHT22;11804;51.118;17.058;2022-10-16T12:10:44;20.90;99.90
23271;DHT22;11804;51.118;17.058;2022-10-16T12:13:33;20.90;99.90
23271;DHT22;11804;51.118;17.058;2022-10-16T12:18:44;20.90;99.90
23271;DHT22;11804;51.118;17.058;2022-10-16T12:21:14;20.90;99.90
23271;DHT22;11804;51.118;17.058;2022-10-16T12:23:58;20.90;99.90
23271;DHT22;11804;51.118;17.058;2022-10-16T12:26:26;20.80;99.90
23271;DHT22;11804;51.118;17.058;2022-10-16T12:28:55;20.70;99.90
23271;DHT22;11804;51.118;17.058;2022-10-16T12:31:35;20.50;99.90
23271;DHT22;11804;51.118;17.058;2022-10-16T12:34:01;20.40;99.90
23271;DHT22;11804;51.118;17.058;2022-10-16T12:36:33;20.40;99.90
23271;DHT22;11804;51.118;17.058;2022-10-16T12:39:02;20.30;99.90
23271;DHT22;11804;51.118;17.058;2022-10-16T12:41:36;20.30;99.90
23271;DHT22;11804;51.118;17.058;2022-10-16T12:44:20;20.20;99.90
23271;DHT22;11804;51.118;17.058;2022-10-16T12:46:39;20.20;99.90
23271;DHT22;11804;51.118;17.058;2022-10-16T12:51:45;20.20;99.90
23271;DHT22;11804;51.118;17.058;2022-10-16T12:54:15;20.20;99.90
23271;DHT22;11804;51.118;17.058;2022-10-16T13:00:04;20.20;99.90
23271;DHT22;11804;51.118;17.058;2022-10-16T13:05:42;20.30;99.90
23271;DHT22;11804;51.118;17.058;2022-10-16T13:08:43;20.40;99.90
23271;DHT22;11804;51.118;17.058;2022-10-16T13:11:20;20.30;99.90
23271;DHT22;11804;51.118;17.058;2022-10-16T13:19:10;20.30;99.90
23271;DHT22;11804;51.118;17.058;2022-10-16T13:22:05;20.30;99.90
23271;DHT22;11804;51.118;17.058;2022-10-16T13:27:23;20.40;99.90
23271;DHT22;11804;51.118;17.058;2022-10-16T13:29:52;20.40;99.90
23271;DHT22;11804;51.118;17.058;2022-10-16T13:32:20;20.40;99.90
23271;DHT22;11804;51.118;17.058;2022-10-16T13:34:49;20.40;99.90
23271;DHT22;11804;51.118;17.058;2022-10-16T13:37:22;20.40;99.90
23271;DHT22;11804;51.118;17.058;2022-10-16T13:39:49;20.30;99.90
23271;DHT22;11804;51.118;17.058;2022-10-16T13:42:27;20.30;99.90
23271;DHT22;11804;51.118;17.058;2022-10-16T13:44:56;20.40;99.90
23271;DHT22;11804;51.118;17.058;2022-10-16T13:47:28;20.40;99.90
23271;DHT22;11804;51.118;17.058;2022-10-16T13:50:11;20.40;99.90
23271;DHT22;11804;51.118;17.058;2022-10-16T13:52:39;20.50;99.90
23271;DHT22;11804;51.118;17.058;2022-10-16T13:55:13;20.50;99.90
23271;DHT22;11804;51.118;17.058;2022-10-16T13:57:43;20.60;99.90
23271;DHT22;11804;51.118;17.058;2022-10-16T14:00:26;20.60;99.90
23271;DHT22;11804;51.118;17.058;2022-10-16T14:03:15;20.60;99.90
23271;DHT22;11804;51.118;17.058;2022-10-16T14:05:46;20.60;99.90
23271;DHT22;11804;51.118;17.058;2022-10-16T14:08:13;20.60;99.90
23271;DHT22;11804;51.118;17.058;2022-10-16T14:10:41;20.60;99.90
23271;DHT22;11804;51.118;17.058;2022-10-16T14:13:15;20.50;99.90
23271;DHT22;11804;51.118;17.058;2022-10-16T14:15:46;20.50;99.90
23271;DHT22;11804;51.118;17.058;2022-10-16T14:18:22;20.40;99.90
23271;DHT22;11804;51.118;17.058;2022-10-16T14:20:50;20.30;99.90
23271;DHT22;11804;51.118;17.058;2022-10-16T14:23:23;20.30;99.90
23271;DHT22;11804;51.118;17.058;2022-10-16T14:25:52;20.30;99.90
23271;DHT22;11804;51.118;17.058;2022-10-16T14:28:22;20.50;99.90
23271;DHT22;11804;51.118;17.058;2022-10-16T14:30:59;20.80;99.90
23271;DHT22;11804;51.118;17.058;2022-10-16T14:36:12;20.50;99.90
23271;DHT22;11804;51.118;17.058;2022-10-16T14:38:47;20.20;99.90
23271;DHT22;11804;51.118;17.058;2022-10-16T14:41:11;20.10;99.90
23271;DHT22;11804;51.118;17.058;2022-10-16T14:43:43;20.00;99.90
23271;DHT22;11804;51.118;17.058;2022-10-16T14:46:16;20.00;99.90
23271;DHT22;11804;51.118;17.058;2022-10-16T14:48:46;19.90;99.90
23271;DHT22;11804;51.118;17.058;2022-10-16T14:51:15;19.90;99.90
23271;DHT22;11804;51.118;17.058;2022-10-16T14:53:43;19.90;99.90
23271;DHT22;11804;51.118;17.058;2022-10-16T14:56:23;19.90;99.90
23271;DHT22;11804;51.118;17.058;2022-10-16T14:58:51;19.90;99.90
23271;DHT22;11804;51.118;17.058;2022-10-16T15:01:20;20.00;99.90
23271;DHT22;11804;51.118;17.058;2022-10-16T15:03:47;20.00;99.90
23271;DHT22;11804;51.118;17.058;2022-10-16T15:06:16;19.90;99.90
23271;DHT22;11804;51.118;17.058;2022-10-16T15:08:44;19.90;99.90
23271;DHT22;11804;51.118;17.058;2022-10-16T15:11:13;19.90;99.90
23271;DHT22;11804;51.118;17.058;2022-10-16T15:13:42;19.90;99.90
23271;DHT22;11804;51.118;17.058;2022-10-16T15:16:14;19.80;99.90
23271;DHT22;11804;51.118;17.058;2022-10-16T15:18:43;19.80;99.90
23271;DHT22;11804;51.118;17.058;2022-10-16T15:21:29;19.70;99.90
23271;DHT22;11804;51.118;17.058;2022-10-16T15:23:58;19.60;99.90
23271;DHT22;11804;51.118;17.058;2022-10-16T15:26:27;19.60;99.90
23271;DHT22;11804;51.118;17.058;2022-10-16T15:28:55;19.50;99.90
23271;DHT22;11804;51.118;17.058;2022-10-16T15:31:24;19.50;99.90
23271;DHT22;11804;51.118;17.058;2022-10-16T15:33:53;19.50;99.90
23271;DHT22;11804;51.118;17.058;2022-10-16T15:36:26;19.40;99.90
23271;DHT22;11804;51.118;17.058;2022-10-16T15:38:54;19.30;99.90
23271;DHT22;11804;51.118;17.058;2022-10-16T15:41:23;19.20;99.90
23271;DHT22;11804;51.118;17.058;2022-10-16T15:43:50;19.20;99.90
23271;DHT22;11804;51.118;17.058;2022-10-16T15:46:20;19.20;99.90
23271;DHT22;11804;51.118;17.058;2022-10-16T15:48:49;19.10;99.90
23271;DHT22;11804;51.118;17.058;2022-10-16T15:51:18;19.10;99.90
23271;DHT22;11804;51.118;17.058;2022-10-16T15:53:45;19.00;99.90
23271;DHT22;11804;51.118;17.058;2022-10-16T15:56:14;19.00;99.90
23271;DHT22;11804;51.118;17.058;2022-10-16T15:58:43;19.00;99.90
23271;DHT22;11804;51.118;17.058;2022-10-16T16:01:11;18.90;99.90
23271;DHT22;11804;51.118;17.058;2022-10-16T16:03:39;18.90;99.90
23271;DHT22;11804;51.118;17.058;2022-10-16T16:06:13;18.80;99.90
23271;DHT22;11804;51.118;17.058;2022-10-16T16:08:41;18.70;99.90
23271;DHT22;11804;51.118;17.058;2022-10-16T16:11:11;18.70;99.90
23271;DHT22;11804;51.118;17.058;2022-10-16T16:13:39;18.60;99.90
23271;DHT22;11804;51.118;17.058;2022-10-16T16:16:09;18.60;99.90
23271;DHT22;11804;51.118;17.058;2022-10-16T16:18:38;18.60;99.90
23271;DHT22;11804;51.118;17.058;2022-10-16T16:21:06;18.60;99.90
23271;DHT22;11804;51.118;17.058;2022-10-16T16:23:34;18.60;99.90
23271;DHT22;11804;51.118;17.058;2022-10-16T16:26:06;18.50;99.90
23271;DHT22;11804;51.118;17.058;2022-10-16T16:28:35;18.50;99.90
23271;DHT22;11804;51.118;17.058;2022-10-16T16:31:03;18.50;99.90
23271;DHT22;11804;51.118;17.058;2022-10-16T16:33:30;18.50;99.90
23271;DHT22;11804;51.118;17.058;2022-10-16T16:36:00;18.50;99.90
23271;DHT22;11804;51.118;17.058;2022-10-16T16:38:28;18.50;99.90
23271;DHT22;11804;51.118;17.058;2022-10-16T16:40:56;18.40;99.90
23271;DHT22;11804;51.118;17.058;2022-10-16T16:43:26;18.40;99.90
23271;DHT22;11804;51.118;17.058;2022-10-16T16:45:54;18.40;99.90
23271;DHT22;11804;51.118;17.058;2022-10-16T16:48:22;18.40;99.90
23271;DHT22;11804;51.118;17.058;2022-10-16T16:50:49;18.40;99.90
23271;DHT22;11804;51.118;17.058;2022-10-16T16:53:17;18.30;99.90
23271;DHT22;11804;51.118;17.058;2022-10-16T16:55:44;18.30;99.90
23271;DHT22;11804;51.118;17.058;2022-10-16T16:58:12;18.20;99.90
23271;DHT22;11804;51.118;17.058;2022-10-16T17:00:46;18.20;99.90
23271;DHT22;11804;51.118;17.058;2022-10-16T17:03:14;18.10;99.90
23271;DHT22;11804;51.118;17.058;2022-10-16T17:05:41;18.10;99.90
23271;DHT22;11804;51.118;17.058;2022-10-16T17:08:09;18.10;99.90
23271;DHT22;11804;51.118;17.058;2022-10-16T17:10:44;18.00;99.90